createdAt,value
2019-05-03T00:02:12.302Z,31.76
2019-05-03T00:04:37.757Z,31.43
2019-05-03T00:07:04.134Z,31.82
2019-05-03T00:09:31.985Z,32.01
2019-05-03T00:14:23.157Z,32.32
2019-05-03T00:16:49.535Z,32.52
2019-05-03T00:19:16.000Z,32.94
2019-05-03T00:21:42.323Z,32.66
2019-05-03T00:24:08.612Z,32.86
2019-05-03T00:26:34.990Z,32.87
2019-05-03T00:29:02.203Z,32.95
2019-05-03T00:31:27.679Z,33.08
2019-05-03T00:33:54.037Z,33.15
2019-05-03T00:36:22.148Z,33.23
2019-05-03T00:38:46.749Z,33.29
2019-05-03T00:41:13.112Z,33.37
2019-05-03T00:43:39.426Z,33.52
2019-05-03T00:46:05.798Z,33.55
2019-05-03T00:48:32.616Z,33.57
2019-05-03T00:50:58.483Z,33.73
2019-05-03T00:53:24.860Z,33.78
2019-05-03T00:55:52.450Z,33.91
2019-05-03T00:58:17.505Z,33.91
2019-05-03T01:00:43.843Z,33.94
2019-05-03T01:03:10.196Z,34.07
2019-05-03T01:05:36.566Z,34.13
2019-05-03T01:08:02.870Z,34.09
2019-05-03T01:10:29.270Z,34.13
2019-05-03T01:12:55.600Z,34.26
2019-05-03T01:15:21.935Z,34.37
2019-05-03T01:17:48.271Z,34.25
2019-05-03T01:20:14.602Z,34.41
2019-05-03T01:22:42.487Z,34.46
2019-05-03T01:25:07.312Z,34.48
2019-05-03T01:27:33.665Z,34.53
2019-05-03T01:32:26.357Z,34.64
2019-05-03T01:34:52.701Z,34.73
2019-05-03T01:37:19.097Z,34.75
2019-05-03T01:39:45.461Z,34.84
2019-05-03T01:42:12.029Z,34.94
2019-05-03T01:44:38.124Z,35.01
2019-05-03T01:47:04.496Z,35.03
2019-05-03T01:49:32.091Z,35.10
2019-05-03T01:51:57.167Z,35.13
2019-05-03T01:54:23.551Z,35.21
2019-05-03T01:56:56.923Z,35.31
2019-05-03T01:59:16.274Z,35.40
2019-05-03T02:01:42.603Z,35.41
2019-05-03T02:04:09.013Z,35.35
2019-05-03T02:06:35.379Z,35.53
2019-05-03T02:09:01.772Z,35.48
2019-05-03T02:11:28.098Z,35.51
2019-05-03T02:13:54.469Z,35.67
2019-05-03T02:16:21.886Z,35.68
2019-05-03T02:18:47.191Z,35.67
2019-05-03T02:21:13.532Z,35.75
2019-05-03T02:23:39.851Z,35.73
2019-05-03T02:26:06.183Z,35.75
2019-05-03T02:28:32.761Z,35.87
2019-05-03T02:30:58.902Z,35.88
2019-05-03T02:33:25.243Z,35.93
2019-05-03T02:35:53.256Z,36.00
2019-05-03T02:38:17.986Z,35.97
2019-05-03T02:40:44.379Z,36.05
2019-05-03T02:43:10.691Z,36.02
2019-05-03T02:45:37.133Z,36.09
2019-05-03T02:48:05.854Z,36.14
2019-05-03T02:50:29.852Z,36.19
2019-05-03T02:52:56.258Z,36.19
2019-05-03T02:55:22.590Z,36.19
2019-05-03T02:57:48.970Z,36.22
2019-05-03T03:00:16.237Z,36.24
2019-05-03T03:02:41.819Z,36.32
2019-05-03T03:05:08.113Z,36.32
2019-05-03T03:10:00.879Z,36.39
2019-05-03T03:12:27.245Z,36.42
2019-05-03T03:14:55.142Z,36.40
2019-05-03T03:17:19.948Z,36.56
2019-05-03T03:19:46.323Z,36.60
2019-05-03T03:22:12.623Z,36.61
2019-05-03T03:24:38.998Z,36.64
2019-05-03T03:27:05.510Z,36.54
2019-05-03T03:29:31.727Z,36.45
2019-05-03T03:31:58.726Z,36.40
2019-05-03T03:34:28.021Z,36.31
2019-05-03T03:37:00.813Z,36.26
2019-05-03T03:39:17.129Z,36.22
2019-05-03T03:41:45.313Z,36.12
2019-05-03T03:44:09.853Z,35.88
2019-05-03T03:46:36.184Z,35.79
2019-05-03T03:49:02.624Z,35.79
2019-05-03T03:51:28.889Z,35.67
2019-05-03T03:53:55.661Z,35.63
2019-05-03T03:56:21.549Z,35.58
2019-05-03T03:58:47.866Z,35.52
2019-05-03T04:01:15.651Z,35.50
2019-05-03T04:03:40.597Z,35.35
2019-05-03T04:06:06.886Z,35.14
2019-05-03T04:08:35.834Z,35.03
2019-05-03T04:10:59.611Z,34.94
2019-05-03T04:13:25.956Z,34.82
2019-05-03T04:15:52.312Z,34.59
2019-05-03T04:18:18.636Z,34.50
2019-05-03T04:20:45.792Z,34.37
2019-05-03T04:23:11.341Z,34.36
2019-05-03T04:25:37.714Z,34.13
